createdAt,value
2018-07-07T00:03:44.922Z,19.02
2018-07-07T00:13:40.267Z,19.80
2018-07-07T00:23:36.818Z,19.36
2018-07-07T00:33:35.652Z,18.80
2018-07-07T00:43:32.646Z,18.68
2018-07-07T00:53:27.859Z,18.44
2018-07-07T01:03:24.502Z,18.46
2018-07-07T01:13:18.344Z,18.49
2018-07-07T01:23:13.151Z,18.31
2018-07-07T01:33:09.898Z,18.37
2018-07-07T01:43:05.222Z,18.25
2018-07-07T01:53:02.753Z,18.19
2018-07-07T02:03:01.447Z,18.07
2018-07-07T02:12:59.773Z,18.10
2018-07-07T02:22:56.920Z,18.00
2018-07-07T02:32:54.230Z,17.96
2018-07-07T02:42:52.145Z,18.04
2018-07-07T02:52:49.543Z,17.89
2018-07-07T03:02:45.450Z,17.87
2018-07-07T03:12:40.031Z,17.85
2018-07-07T03:22:36.973Z,17.69
2018-07-07T03:32:34.379Z,17.51
2018-07-07T03:42:32.341Z,17.60
2018-07-07T03:52:29.532Z,17.48
2018-07-07T04:02:22.917Z,17.36
2018-07-07T04:12:19.172Z,17.20
2018-07-07T04:22:15.940Z,17.32
2018-07-07T04:32:10.699Z,17.40
2018-07-07T04:42:08.211Z,17.82
2018-07-07T04:52:06.647Z,18.32
2018-07-07T05:02:00.630Z,18.55
2018-07-07T05:11:58.542Z,19.09
2018-07-07T05:21:55.741Z,19.88
2018-07-07T05:31:51.374Z,20.01
2018-07-07T05:41:49.092Z,19.88
2018-07-07T05:51:43.614Z,20.40
2018-07-07T06:01:39.818Z,20.84
2018-07-07T06:11:39.294Z,21.14
2018-07-07T06:21:36.214Z,21.31
2018-07-07T06:31:35.412Z,22.02
2018-07-07T06:41:30.958Z,22.68
2018-07-07T06:51:26.747Z,23.04
2018-07-07T07:01:23.786Z,22.46
2018-07-07T07:11:19.471Z,22.22
2018-07-07T07:21:14.078Z,22.50
2018-07-07T07:31:11.878Z,22.60
2018-07-07T07:41:04.751Z,22.75
2018-07-07T07:50:57.225Z,22.68
2018-07-07T08:00:53.732Z,22.63
2018-07-07T08:10:50.813Z,22.63
2018-07-07T08:20:48.867Z,23.12
2018-07-07T08:30:43.810Z,23.65
2018-07-07T08:40:40.859Z,23.53
2018-07-07T08:50:36.811Z,24.07
2018-07-07T09:00:33.534Z,24.27
2018-07-07T09:10:32.350Z,24.32
2018-07-07T09:20:28.152Z,24.15
2018-07-07T09:30:23.316Z,24.75
2018-07-07T09:40:23.221Z,24.95
2018-07-07T09:50:18.832Z,25.05
2018-07-07T10:00:14.420Z,24.37
2018-07-07T10:10:11.402Z,24.80
2018-07-07T10:20:10.702Z,25.47
2018-07-07T10:30:08.559Z,25.78
2018-07-07T10:40:04.772Z,25.02
2018-07-07T10:49:58.447Z,25.00
2018-07-07T10:59:57.450Z,25.27
2018-07-07T11:09:56.712Z,25.90
2018-07-07T11:19:52.592Z,26.32
2018-07-07T11:29:47.529Z,25.67
2018-07-07T11:39:21.222Z,27.09
2018-07-07T11:49:01.584Z,28.28
2018-07-07T11:58:44.977Z,29.10
2018-07-07T12:08:18.278Z,26.90
2018-07-07T12:17:46.349Z,27.31
2018-07-07T12:27:24.656Z,28.59
2018-07-07T12:37:01.957Z,28.72
2018-07-07T12:46:41.445Z,28.17
2018-07-07T12:56:21.457Z,28.50
2018-07-07T13:05:51.683Z,29.19
2018-07-07T13:15:28.956Z,28.88
2018-07-07T13:25:06.927Z,29.77
2018-07-07T13:34:45.868Z,29.10
2018-07-07T13:44:23.088Z,28.14
2018-07-07T13:54:00.887Z,28.61
2018-07-07T14:03:39.939Z,29.40
2018-07-07T14:13:18.866Z,30.14
2018-07-07T14:22:56.142Z,29.96
2018-07-07T14:32:35.002Z,27.51
2018-07-07T14:42:10.205Z,26.72
2018-07-07T14:51:50.186Z,28.11
2018-07-07T15:01:22.660Z,26.11
2018-07-07T15:10:59.004Z,26.58
2018-07-07T15:20:41.460Z,27.62
2018-07-07T15:30:11.236Z,27.46
2018-07-07T15:39:50.921Z,27.34
2018-07-07T15:49:29.874Z,26.61
2018-07-07T15:59:01.089Z,26.11
2018-07-07T16:08:36.131Z,25.82
2018-07-07T16:18:13.058Z,25.53
2018-07-07T16:27:49.067Z,25.30
2018-07-07T16:37:25.839Z,25.10
2018-07-07T16:47:05.868Z,25.00
2018-07-07T16:56:34.039Z,24.80
2018-07-07T17:06:10.827Z,24.71
2018-07-07T17:15:47.576Z,24.47
2018-07-07T17:25:24.547Z,24.38
2018-07-07T17:35:01.057Z,24.20
2018-07-07T17:44:37.677Z,24.05
2018-07-07T17:54:18.638Z,23.55
2018-07-07T18:03:46.903Z,23.42
2018-07-07T18:13:23.077Z,23.04
2018-07-07T18:23:00.921Z,23.09
2018-07-07T18:32:34.831Z,22.71
2018-07-07T18:42:11.183Z,22.54
2018-07-07T18:51:52.113Z,22.44
2018-07-07T19:01:20.707Z,22.28
2018-07-07T19:10:56.332Z,22.42
2018-07-07T19:20:33.686Z,22.20
2018-07-07T19:30:10.696Z,22.19
2018-07-07T19:39:47.644Z,22.08
2018-07-07T19:49:28.908Z,21.70
2018-07-07T19:58:58.015Z,21.92
2018-07-07T20:08:33.691Z,21.64
2018-07-07T20:18:10.879Z,21.60
2018-07-07T20:27:47.920Z,21.45
2018-07-07T20:37:24.936Z,21.33
2018-07-07T20:47:02.015Z,21.27
2018-07-07T20:56:39.828Z,21.46
2018-07-07T21:06:15.516Z,21.42
2018-07-07T21:15:52.378Z,21.39
2018-07-07T21:25:33.658Z,21.35
2018-07-07T21:35:21.222Z,20.65
2018-07-07T21:45:16.174Z,20.28
2018-07-07T21:55:11.026Z,20.13
2018-07-07T22:05:06.662Z,19.88
2018-07-07T22:15:04.870Z,19.55
2018-07-07T22:25:00.549Z,18.73
2018-07-07T22:34:54.594Z,18.16
2018-07-07T22:44:48.892Z,17.74
2018-07-07T22:54:46.733Z,17.21
2018-07-07T23:04:42.807Z,17.14
2018-07-07T23:14:38.651Z,16.88
2018-07-07T23:24:33.700Z,16.33
2018-07-07T23:34:30.704Z,16.14
2018-07-07T23:44:26.622Z,15.76
2018-07-07T23:54:22.797Z,15.51
